createdAt,value
2023-03-29T00:19:43.609Z,23.50
2023-03-29T00:23:43.782Z,23.48
2023-03-29T00:27:44.040Z,23.50
2023-03-29T00:31:44.205Z,23.48
2023-03-29T00:35:44.395Z,23.48
2023-03-29T00:39:44.588Z,23.47
2023-03-29T00:43:44.799Z,23.47
2023-03-29T00:47:45.078Z,23.50
2023-03-29T00:51:45.212Z,23.46
2023-03-29T00:55:45.455Z,23.47
2023-03-29T00:59:45.688Z,23.48
2023-03-29T01:03:45.944Z,23.44
2023-03-29T01:07:46.075Z,23.46
2023-03-29T01:11:46.335Z,23.47
2023-03-29T01:15:46.514Z,23.44
2023-03-29T01:19:46.733Z,23.44
2023-03-29T01:23:46.691Z,23.46
2023-03-29T01:27:46.646Z,23.44
2023-03-29T01:31:46.682Z,23.43
2023-03-29T01:35:46.609Z,23.43
2023-03-29T01:39:46.533Z,23.40
2023-03-29T01:43:46.527Z,23.43
2023-03-29T01:47:46.498Z,23.44
2023-03-29T01:51:46.456Z,23.40
2023-03-29T01:55:46.397Z,23.40
2023-03-29T01:59:46.357Z,23.40
2023-03-29T02:03:46.377Z,23.41
2023-03-29T02:07:46.290Z,23.40
2023-03-29T02:11:46.254Z,23.40
2023-03-29T02:15:46.257Z,23.41
2023-03-29T02:19:46.205Z,23.38
2023-03-29T02:23:46.164Z,23.37
2023-03-29T02:27:46.152Z,23.36
2023-03-29T02:31:46.097Z,23.37
2023-03-29T02:35:46.083Z,23.36
2023-03-29T02:39:46.038Z,23.37
2023-03-29T02:43:46.157Z,23.37
2023-03-29T02:47:46.164Z,23.36
2023-03-29T02:51:46.097Z,23.33
2023-03-29T02:55:46.067Z,23.33
2023-03-29T02:59:46.029Z,23.36
2023-03-29T03:03:46.110Z,23.36
2023-03-29T03:07:45.983Z,23.34
2023-03-29T03:11:45.937Z,23.34
2023-03-29T03:15:45.904Z,23.36
2023-03-29T03:19:45.864Z,23.33
2023-03-29T03:23:45.931Z,23.33
2023-03-29T03:27:45.874Z,23.33
2023-03-29T03:31:45.868Z,23.34
2023-03-29T03:35:45.870Z,23.33
2023-03-29T03:39:45.771Z,23.30
2023-03-29T03:43:45.735Z,23.33
2023-03-29T03:47:45.738Z,23.31
2023-03-29T03:51:45.695Z,23.30
2023-03-29T03:55:45.635Z,23.31
2023-03-29T03:59:45.556Z,23.29
2023-03-29T04:03:45.766Z,23.29
2023-03-29T04:07:45.864Z,23.29
2023-03-29T04:11:46.061Z,23.29
2023-03-29T04:15:46.296Z,23.29
2023-03-29T04:19:46.369Z,23.30
2023-03-29T04:23:46.626Z,23.27
2023-03-29T04:27:46.722Z,23.27
2023-03-29T04:31:46.943Z,23.29
2023-03-29T04:35:47.102Z,23.27
2023-03-29T04:39:47.142Z,23.26
2023-03-29T04:43:47.309Z,23.26
2023-03-29T04:47:47.390Z,23.26
2023-03-29T04:51:47.524Z,23.24
2023-03-29T04:55:47.863Z,23.23
2023-03-29T04:59:47.689Z,23.30
2023-03-29T05:03:47.659Z,23.29
2023-03-29T05:07:47.599Z,23.27
2023-03-29T05:11:47.559Z,23.31
2023-03-29T05:15:47.649Z,23.31
2023-03-29T05:19:47.516Z,23.33
2023-03-29T05:23:47.447Z,23.34
2023-03-29T05:27:47.423Z,23.36
2023-03-29T05:31:47.422Z,23.38
2023-03-29T05:35:47.418Z,23.38
2023-03-29T05:39:47.602Z,23.40
2023-03-29T05:43:47.335Z,23.40
2023-03-29T05:47:47.311Z,23.74
2023-03-29T05:51:47.602Z,23.95
2023-03-29T05:55:47.630Z,24.09
2023-03-29T05:59:47.166Z,24.23
2023-03-29T06:03:47.329Z,24.34
2023-03-29T06:07:47.137Z,24.41
2023-03-29T06:11:47.120Z,24.50
2023-03-29T06:15:47.047Z,24.54
2023-03-29T06:19:47.023Z,24.64
2023-03-29T06:23:46.978Z,24.75
2023-03-29T06:27:46.943Z,24.81
2023-03-29T06:31:47.027Z,24.72
2023-03-29T06:35:47.197Z,24.68
2023-03-29T06:39:47.134Z,24.65
2023-03-29T06:43:47.249Z,24.67
2023-03-29T06:47:47.636Z,24.51
2023-03-29T06:51:47.494Z,24.39
2023-03-29T06:55:47.679Z,24.50
2023-03-29T06:59:48.147Z,24.64
2023-03-29T07:03:48.201Z,24.78
2023-03-29T07:07:47.846Z,24.89
2023-03-29T07:11:47.845Z,25.02
2023-03-29T07:15:48.174Z,25.06
2023-03-29T07:19:47.825Z,25.10
2023-03-29T07:23:48.153Z,25.09
2023-03-29T07:27:47.855Z,25.10
2023-03-29T07:31:47.874Z,25.15
2023-03-29T07:35:48.236Z,25.15
2023-03-29T07:39:48.658Z,25.09
2023-03-29T07:43:48.342Z,25.23
2023-03-29T07:47:48.668Z,25.26
2023-03-29T07:51:48.514Z,25.28
2023-03-29T07:55:48.504Z,25.22
2023-03-29T07:59:49.158Z,25.18
2023-03-29T08:03:48.665Z,25.12
2023-03-29T08:07:48.729Z,25.06
2023-03-29T08:11:48.834Z,25.01
2023-03-29T08:15:48.933Z,24.96
2023-03-29T08:19:51.309Z,24.95
2023-03-29T08:23:49.076Z,24.89
2023-03-29T08:27:49.010Z,24.88
2023-03-29T08:31:56.191Z,24.85
2023-03-29T08:35:48.971Z,24.82
2023-03-29T08:39:49.203Z,24.81
2023-03-29T08:43:48.880Z,24.81
2023-03-29T08:47:49.235Z,24.79
2023-03-29T08:51:49.197Z,24.78
2023-03-29T08:55:48.805Z,24.77
2023-03-29T08:59:48.849Z,24.77
2023-03-29T09:03:49.089Z,24.74
2023-03-29T09:07:49.710Z,24.72
2023-03-29T09:11:49.421Z,24.75
2023-03-29T09:15:49.671Z,24.75
2023-03-29T09:19:49.797Z,24.74
2023-03-29T09:23:50.034Z,24.74
2023-03-29T09:27:50.721Z,24.74
2023-03-29T09:31:50.461Z,24.77
2023-03-29T09:35:50.577Z,24.79
2023-03-29T09:39:50.753Z,24.75
2023-03-29T09:43:51.241Z,24.77
2023-03-29T09:47:50.876Z,24.58
2023-03-29T09:51:51.287Z,24.43
2023-03-29T09:55:51.093Z,24.36
2023-03-29T09:59:51.239Z,24.21
2023-03-29T10:03:51.424Z,24.26
2023-03-29T10:07:52.231Z,24.21
2023-03-29T10:11:51.727Z,24.12
2023-03-29T10:15:51.918Z,24.12
2023-03-29T10:19:52.091Z,24.19
2023-03-29T10:23:52.283Z,24.16
2023-03-29T10:27:52.490Z,24.19
2023-03-29T10:31:52.818Z,24.21
2023-03-29T10:35:53.278Z,24.23
2023-03-29T10:39:53.229Z,24.21
2023-03-29T10:43:53.074Z,24.47
2023-03-29T10:47:53.198Z,24.61
2023-03-29T10:52:00.778Z,24.70
2023-03-29T10:55:53.230Z,24.74
2023-03-29T10:59:53.227Z,24.85
2023-03-29T11:03:53.364Z,24.95
2023-03-29T11:07:53.132Z,24.99
2023-03-29T11:12:01.254Z,24.95
2023-03-29T11:15:54.111Z,25.08
2023-03-29T11:19:53.119Z,25.18
2023-03-29T11:23:53.056Z,25.20
2023-03-29T11:27:54.306Z,25.25
2023-03-29T11:31:53.757Z,25.19
2023-03-29T11:35:53.391Z,25.25
2023-03-29T11:39:53.587Z,25.10
2023-03-29T11:43:55.078Z,25.10
2023-03-29T11:47:53.811Z,25.05
2023-03-29T11:51:53.702Z,24.96
2023-03-29T11:55:53.694Z,24.95
2023-03-29T11:59:53.645Z,24.93
2023-03-29T12:03:53.745Z,24.89
2023-03-29T12:07:53.588Z,24.96
2023-03-29T12:11:53.551Z,24.92
2023-03-29T12:15:53.498Z,24.92
2023-03-29T12:19:53.517Z,24.96
2023-03-29T12:23:53.439Z,24.98
2023-03-29T12:27:53.425Z,24.95
2023-03-29T12:31:53.483Z,24.95
2023-03-29T12:35:53.618Z,24.95
2023-03-29T12:39:53.758Z,24.91
2023-03-29T12:43:53.952Z,24.89
2023-03-29T12:47:54.072Z,24.89
2023-03-29T12:51:54.258Z,24.88
2023-03-29T12:55:54.358Z,24.92
2023-03-29T12:59:54.473Z,24.92
2023-03-29T13:03:54.570Z,24.93
2023-03-29T13:07:54.657Z,24.92
2023-03-29T13:11:54.726Z,24.95
2023-03-29T13:15:54.851Z,24.92
2023-03-29T13:19:54.868Z,24.88
2023-03-29T13:23:54.872Z,24.85
2023-03-29T13:27:54.877Z,24.85
2023-03-29T13:31:54.878Z,24.81
2023-03-29T13:35:54.921Z,24.84
2023-03-29T13:39:54.846Z,24.79
2023-03-29T13:43:54.904Z,24.71
2023-03-29T13:48:04.529Z,24.78
2023-03-29T13:51:55.843Z,24.77
2023-03-29T13:55:54.861Z,24.77
2023-03-29T13:59:54.815Z,24.71
2023-03-29T14:03:54.727Z,24.71
2023-03-29T14:07:54.733Z,24.70
2023-03-29T14:11:54.706Z,24.68
2023-03-29T14:15:54.672Z,24.68
2023-03-29T14:19:54.718Z,24.70
2023-03-29T14:23:54.770Z,24.72
2023-03-29T14:27:54.797Z,24.72
2023-03-29T14:31:54.907Z,24.65
2023-03-29T14:35:54.981Z,24.70
2023-03-29T14:39:55.018Z,24.70
2023-03-29T14:43:55.108Z,24.63
2023-03-29T14:47:55.191Z,24.64
2023-03-29T14:51:55.213Z,24.65
2023-03-29T14:55:55.315Z,24.68
2023-03-29T14:59:55.408Z,24.70
2023-03-29T15:03:55.595Z,24.70
2023-03-29T15:07:55.441Z,24.67
2023-03-29T15:11:55.560Z,24.60
2023-03-29T15:15:55.499Z,24.53
2023-03-29T15:19:55.424Z,24.46
2023-03-29T15:23:55.408Z,24.47
2023-03-29T15:27:55.396Z,24.39
2023-03-29T15:31:55.436Z,24.34
2023-03-29T15:35:55.306Z,24.31
2023-03-29T15:39:55.282Z,24.30
2023-03-29T15:43:55.286Z,24.27
2023-03-29T15:47:55.397Z,24.23
2023-03-29T15:51:55.158Z,24.29
2023-03-29T15:55:55.354Z,24.33
2023-03-29T15:59:55.107Z,24.27
2023-03-29T16:03:55.048Z,24.26
2023-03-29T16:07:55.009Z,24.26
2023-03-29T16:11:54.995Z,24.21
2023-03-29T16:15:54.936Z,24.24
2023-03-29T16:19:54.890Z,24.23
2023-03-29T16:23:54.895Z,24.24
2023-03-29T16:27:54.798Z,24.23
2023-03-29T16:31:54.949Z,24.17
2023-03-29T16:35:54.854Z,24.17
2023-03-29T16:39:54.824Z,24.17
2023-03-29T16:43:54.923Z,24.16
2023-03-29T16:47:55.067Z,24.15
2023-03-29T16:51:55.312Z,24.15
2023-03-29T16:55:55.199Z,24.13
2023-03-29T16:59:55.322Z,24.13
2023-03-29T17:03:55.379Z,24.15
2023-03-29T17:07:55.494Z,24.08
2023-03-29T17:11:55.551Z,24.05
2023-03-29T17:15:55.697Z,24.02
2023-03-29T17:19:55.823Z,24.01
2023-03-29T17:23:55.993Z,24.01
2023-03-29T17:27:56.145Z,23.95
2023-03-29T17:31:56.288Z,23.96
2023-03-29T17:35:56.508Z,23.93
2023-03-29T17:39:56.629Z,23.99
2023-03-29T17:43:56.769Z,24.03
2023-03-29T17:47:56.994Z,24.03
2023-03-29T17:51:57.110Z,23.98
2023-03-29T17:55:57.270Z,24.02
2023-03-29T17:59:57.462Z,23.99
2023-03-29T18:03:57.606Z,23.95
2023-03-29T18:07:57.798Z,23.95
2023-03-29T18:11:58.006Z,23.91
2023-03-29T18:15:57.984Z,23.89
2023-03-29T18:19:57.901Z,23.88
2023-03-29T18:23:57.896Z,23.88
2023-03-29T18:27:57.878Z,23.85
2023-03-29T18:31:57.851Z,23.85
2023-03-29T18:35:57.847Z,23.84
2023-03-29T18:39:57.778Z,23.82
2023-03-29T18:43:57.701Z,23.82
2023-03-29T18:47:57.743Z,23.82
2023-03-29T18:51:57.670Z,23.79
2023-03-29T18:55:57.779Z,23.79
2023-03-29T18:59:57.777Z,23.78
2023-03-29T19:03:57.783Z,23.76
2023-03-29T19:07:57.710Z,23.75
2023-03-29T19:11:57.658Z,23.75
2023-03-29T19:15:57.649Z,23.74
2023-03-29T19:19:57.587Z,23.74
2023-03-29T19:23:57.525Z,23.69
2023-03-29T19:27:57.553Z,23.69
2023-03-29T19:31:57.489Z,23.71
2023-03-29T19:35:57.590Z,23.69
2023-03-29T19:39:57.716Z,23.64
2023-03-29T19:43:57.911Z,23.65
2023-03-29T19:47:58.070Z,23.60
2023-03-29T19:51:58.139Z,23.64
2023-03-29T19:55:58.214Z,23.60
2023-03-29T19:59:58.269Z,23.61
2023-03-29T20:03:58.372Z,23.61
2023-03-29T20:07:58.473Z,23.61
2023-03-29T20:11:58.592Z,23.58
2023-03-29T20:15:58.750Z,23.58
2023-03-29T20:19:58.772Z,23.57
2023-03-29T20:23:58.800Z,23.57
2023-03-29T20:27:58.773Z,23.54
2023-03-29T20:31:58.789Z,23.54
2023-03-29T20:35:58.799Z,23.55
2023-03-29T20:39:58.770Z,23.50
2023-03-29T20:43:58.746Z,23.53
2023-03-29T20:47:58.718Z,23.51
2023-03-29T20:51:58.812Z,23.48
2023-03-29T20:55:58.732Z,23.47
2023-03-29T20:59:58.730Z,23.46
2023-03-29T21:03:58.771Z,23.44
2023-03-29T21:07:58.732Z,23.46
2023-03-29T21:11:58.722Z,23.46
2023-03-29T21:15:58.732Z,23.44
2023-03-29T21:19:58.718Z,23.43
2023-03-29T21:23:58.755Z,23.44
2023-03-29T21:27:58.765Z,23.41
2023-03-29T21:31:58.910Z,23.40
2023-03-29T21:35:58.887Z,23.38
2023-03-29T21:39:58.846Z,23.40
2023-03-29T21:43:58.867Z,23.38
2023-03-29T21:47:58.962Z,23.37
2023-03-29T21:51:58.997Z,23.37
2023-03-29T21:55:59.010Z,23.40
2023-03-29T21:59:59.093Z,23.38
2023-03-29T22:03:59.109Z,23.37
2023-03-29T22:07:59.144Z,23.37
2023-03-29T22:11:59.221Z,23.34
2023-03-29T22:15:59.396Z,23.34
2023-03-29T22:19:59.292Z,23.31
2023-03-29T22:23:59.333Z,23.34
2023-03-29T22:27:59.379Z,23.31
2023-03-29T22:31:59.476Z,23.34
2023-03-29T22:35:59.541Z,23.31
2023-03-29T22:39:59.556Z,23.33
2023-03-29T22:43:59.587Z,23.33
2023-03-29T22:47:59.625Z,23.30
2023-03-29T22:51:59.671Z,23.29
2023-03-29T22:55:59.661Z,23.33
2023-03-29T22:59:59.730Z,23.29
2023-03-29T23:03:59.828Z,23.30
2023-03-29T23:07:59.847Z,23.29
2023-03-29T23:11:59.831Z,23.27
2023-03-29T23:16:00.059Z,23.27
2023-03-29T23:19:59.937Z,23.27
2023-03-29T23:24:00.044Z,23.27
2023-03-29T23:28:00.069Z,23.27
2023-03-29T23:32:00.155Z,23.27
2023-03-29T23:36:00.220Z,23.26
2023-03-29T23:40:00.246Z,23.24
2023-03-29T23:44:00.260Z,23.21
2023-03-29T23:48:00.386Z,23.24
2023-03-29T23:52:00.466Z,23.23
2023-03-29T23:56:00.578Z,23.24
